sensor_id;sensor_type;location;lat;lon;timestamp;pressure;altitude;pressure_sealevel;temperature;humidity
66381;BME280;53177;52.648;1.214;2022-09-09T00:06:58;99760.44;;;15.09;100.00
66381;BME280;53177;52.648;1.214;2022-09-09T00:09:31;99764.03;;;15.05;100.00
66381;BME280;53177;52.648;1.214;2022-09-09T00:12:02;99759.22;;;14.88;100.00
66381;BME280;53177;52.648;1.214;2022-09-09T00:15:01;99760.38;;;14.68;100.00
66381;BME280;53177;52.648;1.214;2022-09-09T00:20:29;99752.19;;;14.40;100.00
66381;BME280;53177;52.648;1.214;2022-09-09T00:23:20;99743.03;;;14.23;100.00
66381;BME280;53177;52.648;1.214;2022-09-09T00:25:57;99748.75;;;14.02;100.00
66381;BME280;53177;52.648;1.214;2022-09-09T00:28:26;99740.44;;;13.99;100.00
66381;BME280;53177;52.648;1.214;2022-09-09T00:30:52;99737.06;;;13.88;100.00
66381;BME280;53177;52.648;1.214;2022-09-09T00:33:23;99732.50;;;13.88;100.00
66381;BME280;53177;52.648;1.214;2022-09-09T00:35:52;99739.19;;;13.91;100.00
66381;BME280;53177;52.648;1.214;2022-09-09T00:38:25;99731.69;;;13.88;100.00
66381;BME280;53177;52.648;1.214;2022-09-09T00:40:57;99729.59;;;13.85;100.00
66381;BME280;53177;52.648;1.214;2022-09-09T00:43:29;99728.25;;;13.82;100.00
66381;BME280;53177;52.648;1.214;2022-09-09T00:52:08;99725.75;;;14.05;100.00
66381;BME280;53177;52.648;1.214;2022-09-09T00:57:33;99725.69;;;13.91;100.00
66381;BME280;53177;52.648;1.214;2022-09-09T01:00:23;99722.84;;;13.82;100.00
66381;BME280;53177;52.648;1.214;2022-09-09T01:03:25;99726.09;;;13.84;100.00
66381;BME280;53177;52.648;1.214;2022-09-09T01:12:06;99716.31;;;13.88;100.00
66381;BME280;53177;52.648;1.214;2022-09-09T01:17:17;99718.13;;;13.93;100.00
66381;BME280;53177;52.648;1.214;2022-09-09T01:19:47;99717.16;;;14.03;100.00
66381;BME280;53177;52.648;1.214;2022-09-09T01:25:18;99716.13;;;13.99;100.00
66381;BME280;53177;52.648;1.214;2022-09-09T01:27:46;99710.50;;;13.95;100.00
66381;BME280;53177;52.648;1.214;2022-09-09T01:30:16;99712.78;;;13.88;100.00
66381;BME280;53177;52.648;1.214;2022-09-09T01:37:57;99708.47;;;13.87;100.00
66381;BME280;53177;52.648;1.214;2022-09-09T01:40:24;99702.19;;;13.91;100.00
66381;BME280;53177;52.648;1.214;2022-09-09T01:42:50;99706.09;;;13.85;100.00
66381;BME280;53177;52.648;1.214;2022-09-09T01:45:16;99698.13;;;13.94;100.00
66381;BME280;53177;52.648;1.214;2022-09-09T01:47:41;99700.34;;;14.06;100.00
66381;BME280;53177;52.648;1.214;2022-09-09T01:50:10;99690.16;;;14.03;100.00
66381;BME280;53177;52.648;1.214;2022-09-09T01:52:37;99680.50;;;13.97;100.00
66381;BME280;53177;52.648;1.214;2022-09-09T01:55:04;99684.31;;;13.96;100.00
66381;BME280;53177;52.648;1.214;2022-09-09T01:57:56;99679.56;;;14.06;100.00
66381;BME280;53177;52.648;1.214;2022-09-09T02:00:18;99674.03;;;13.98;100.00
66381;BME280;53177;52.648;1.214;2022-09-09T02:05:39;99677.22;;;14.00;100.00
66381;BME280;53177;52.648;1.214;2022-09-09T02:08:13;99676.56;;;14.08;100.00
66381;BME280;53177;52.648;1.214;2022-09-09T02:13:22;99671.97;;;14.22;100.00
66381;BME280;53177;52.648;1.214;2022-09-09T02:21:39;99661.59;;;14.15;100.00
66381;BME280;53177;52.648;1.214;2022-09-09T02:24:08;99667.78;;;14.16;100.00
66381;BME280;53177;52.648;1.214;2022-09-09T02:26:38;99662.97;;;14.13;100.00
66381;BME280;53177;52.648;1.214;2022-09-09T02:29:08;99661.25;;;14.03;100.00
66381;BME280;53177;52.648;1.214;2022-09-09T02:31:36;99658.09;;;13.96;100.00
66381;BME280;53177;52.648;1.214;2022-09-09T02:34:03;99666.59;;;13.89;100.00
66381;BME280;53177;52.648;1.214;2022-09-09T02:36:31;99666.09;;;13.87;100.00
66381;BME280;53177;52.648;1.214;2022-09-09T02:38:59;99671.78;;;13.86;100.00
66381;BME280;53177;52.648;1.214;2022-09-09T02:41:33;99668.88;;;13.82;100.00
66381;BME280;53177;52.648;1.214;2022-09-09T02:43:59;99669.97;;;13.81;100.00
66381;BME280;53177;52.648;1.214;2022-09-09T02:46:34;99666.47;;;13.81;100.00
66381;BME280;53177;52.648;1.214;2022-09-09T02:49:43;99663.16;;;13.84;100.00
66381;BME280;53177;52.648;1.214;2022-09-09T02:52:15;99659.16;;;13.81;100.00
66381;BME280;53177;52.648;1.214;2022-09-09T02:54:42;99660.28;;;13.80;100.00
66381;BME280;53177;52.648;1.214;2022-09-09T02:57:12;99657.66;;;13.75;100.00
66381;BME280;53177;52.648;1.214;2022-09-09T02:59:39;99665.75;;;13.75;100.00
66381;BME280;53177;52.648;1.214;2022-09-09T03:02:05;99659.34;;;13.71;100.00
66381;BME280;53177;52.648;1.214;2022-09-09T03:04:31;99657.44;;;13.72;100.00
66381;BME280;53177;52.648;1.214;2022-09-09T03:07:00;99653.41;;;13.69;100.00
66381;BME280;53177;52.648;1.214;2022-09-09T03:09:25;99652.31;;;13.70;100.00
66381;BME280;53177;52.648;1.214;2022-09-09T03:11:53;99652.03;;;13.72;100.00
66381;BME280;53177;52.648;1.214;2022-09-09T03:14:20;99645.97;;;13.61;100.00
66381;BME280;53177;52.648;1.214;2022-09-09T03:16:47;99640.88;;;13.59;100.00
66381;BME280;53177;52.648;1.214;2022-09-09T03:19:13;99633.00;;;13.63;100.00
66381;BME280;53177;52.648;1.214;2022-09-09T03:21:38;99638.91;;;13.65;100.00
66381;BME280;53177;52.648;1.214;2022-09-09T03:24:04;99632.41;;;13.66;100.00
66381;BME280;53177;52.648;1.214;2022-09-09T03:26:30;99636.13;;;13.70;100.00
66381;BME280;53177;52.648;1.214;2022-09-09T03:28:56;99635.06;;;13.71;100.00
66381;BME280;53177;52.648;1.214;2022-09-09T03:31:22;99627.44;;;13.73;100.00
66381;BME280;53177;52.648;1.214;2022-09-09T03:33:47;99632.34;;;13.71;100.00
66381;BME280;53177;52.648;1.214;2022-09-09T03:36:13;99631.25;;;13.72;100.00
66381;BME280;53177;52.648;1.214;2022-09-09T03:38:40;99634.44;;;13.74;100.00
66381;BME280;53177;52.648;1.214;2022-09-09T03:41:05;99630.16;;;13.73;100.00
66381;BME280;53177;52.648;1.214;2022-09-09T03:43:31;99629.56;;;13.76;100.00
66381;BME280;53177;52.648;1.214;2022-09-09T03:45:56;99631.66;;;13.79;100.00
66381;BME280;53177;52.648;1.214;2022-09-09T03:48:22;99633.19;;;13.85;100.00
66381;BME280;53177;52.648;1.214;2022-09-09T03:50:50;99629.38;;;13.86;100.00
66381;BME280;53177;52.648;1.214;2022-09-09T03:53:18;99627.59;;;13.96;100.00
66381;BME280;53177;52.648;1.214;2022-09-09T03:55:48;99632.09;;;13.86;100.00
66381;BME280;53177;52.648;1.214;2022-09-09T03:58:16;99633.28;;;13.80;100.00
66381;BME280;53177;52.648;1.214;2022-09-09T04:00:43;99624.25;;;13.71;100.00
66381;BME280;53177;52.648;1.214;2022-09-09T04:03:10;99633.94;;;13.72;100.00
66381;BME280;53177;52.648;1.214;2022-09-09T04:05:36;99636.22;;;13.65;100.00
66381;BME280;53177;52.648;1.214;2022-09-09T04:08:08;99632.41;;;13.66;100.00
66381;BME280;53177;52.648;1.214;2022-09-09T04:10:34;99626.22;;;13.65;100.00
66381;BME280;53177;52.648;1.214;2022-09-09T04:13:03;99626.22;;;13.65;100.00
66381;BME280;53177;52.648;1.214;2022-09-09T04:15:28;99620.63;;;13.62;100.00
66381;BME280;53177;52.648;1.214;2022-09-09T04:17:54;99617.41;;;13.60;100.00
66381;BME280;53177;52.648;1.214;2022-09-09T04:20:20;99623.38;;;13.57;100.00
66381;BME280;53177;52.648;1.214;2022-09-09T04:22:47;99614.41;;;13.61;100.00
66381;BME280;53177;52.648;1.214;2022-09-09T04:25:12;99619.59;;;13.58;100.00
66381;BME280;53177;52.648;1.214;2022-09-09T04:27:38;99618.50;;;13.59;100.00
66381;BME280;53177;52.648;1.214;2022-09-09T04:30:04;99609.38;;;13.55;100.00
66381;BME280;53177;52.648;1.214;2022-09-09T04:32:32;99607.00;;;13.53;100.00
66381;BME280;53177;52.648;1.214;2022-09-09T04:34:58;99614.22;;;13.58;100.00
66381;BME280;53177;52.648;1.214;2022-09-09T04:37:23;99614.78;;;13.55;100.00
66381;BME280;53177;52.648;1.214;2022-09-09T04:39:50;99620.50;;;13.53;100.00
66381;BME280;53177;52.648;1.214;2022-09-09T04:42:15;99625.88;;;13.53;100.00
66381;BME280;53177;52.648;1.214;2022-09-09T04:44:42;99626.16;;;13.52;100.00
66381;BME280;53177;52.648;1.214;2022-09-09T04:47:09;99627.19;;;13.56;100.00
66381;BME280;53177;52.648;1.214;2022-09-09T04:49:34;99628.78;;;13.57;100.00
66381;BME280;53177;52.648;1.214;2022-09-09T04:52:03;99630.19;;;13.54;100.00
66381;BME280;53177;52.648;1.214;2022-09-09T04:54:29;99636.28;;;13.60;100.00
66381;BME280;53177;52.648;1.214;2022-09-09T04:56:55;99630.91;;;13.60;100.00
66381;BME280;53177;52.648;1.214;2022-09-09T04:59:21;99634.91;;;13.62;100.00
66381;BME280;53177;52.648;1.214;2022-09-09T05:01:47;99631.41;;;13.62;100.00
66381;BME280;53177;52.648;1.214;2022-09-09T05:04:13;99640.09;;;13.59;100.00
66381;BME280;53177;52.648;1.214;2022-09-09T05:06:40;99624.56;;;13.51;100.00
66381;BME280;53177;52.648;1.214;2022-09-09T05:09:05;99620.25;;;13.50;100.00
66381;BME280;53177;52.648;1.214;2022-09-09T05:11:34;99624.56;;;13.51;100.00
66381;BME280;53177;52.648;1.214;2022-09-09T05:14:03;99620.84;;;13.47;100.00
66381;BME280;53177;52.648;1.214;2022-09-09T05:16:29;99626.25;;;13.47;100.00
66381;BME280;53177;52.648;1.214;2022-09-09T05:18:55;99630.53;;;13.48;100.00
66381;BME280;53177;52.648;1.214;2022-09-09T05:21:22;99634.72;;;13.40;100.00
66381;BME280;53177;52.648;1.214;2022-09-09T05:23:48;99631.22;;;13.39;100.00
66381;BME280;53177;52.648;1.214;2022-09-09T05:26:16;99622.09;;;13.35;100.00
66381;BME280;53177;52.648;1.214;2022-09-09T05:28:42;99627.69;;;13.39;100.00
66381;BME280;53177;52.648;1.214;2022-09-09T05:31:09;99621.81;;;13.37;100.00
66381;BME280;53177;52.648;1.214;2022-09-09T05:33:36;99626.09;;;13.38;100.00
66381;BME280;53177;52.648;1.214;2022-09-09T05:36:09;99620.69;;;13.38;100.00
66381;BME280;53177;52.648;1.214;2022-09-09T05:38:36;99622.31;;;13.39;100.00
66381;BME280;53177;52.648;1.214;2022-09-09T05:41:03;99620.94;;;13.42;100.00
66381;BME280;53177;52.648;1.214;2022-09-09T05:43:29;99621.00;;;13.36;100.00
66381;BME280;53177;52.648;1.214;2022-09-09T05:46:09;99626.41;;;13.36;100.00
66381;BME280;53177;52.648;1.214;2022-09-09T05:48:40;99618.31;;;13.36;100.00
66381;BME280;53177;52.648;1.214;2022-09-09T05:51:08;99619.59;;;13.39;100.00
66381;BME280;53177;52.648;1.214;2022-09-09T05:53:34;99619.16;;;13.51;100.00
66381;BME280;53177;52.648;1.214;2022-09-09T05:56:05;99619.59;;;13.58;100.00
66381;BME280;53177;52.648;1.214;2022-09-09T05:58:34;99624.88;;;13.49;100.00
66381;BME280;53177;52.648;1.214;2022-09-09T06:01:05;99631.47;;;13.57;100.00
66381;BME280;53177;52.648;1.214;2022-09-09T06:03:32;99635.19;;;13.61;100.00
66381;BME280;53177;52.648;1.214;2022-09-09T06:05:59;99636.81;;;13.62;100.00
66381;BME280;53177;52.648;1.214;2022-09-09T06:08:25;99644.06;;;13.80;100.00
66381;BME280;53177;52.648;1.214;2022-09-09T06:10:50;99640.56;;;13.80;100.00
66381;BME280;53177;52.648;1.214;2022-09-09T06:13:17;99639.03;;;13.74;100.00
66381;BME280;53177;52.648;1.214;2022-09-09T06:15:52;99644.97;;;13.76;100.00
66381;BME280;53177;52.648;1.214;2022-09-09T06:18:18;99647.09;;;13.93;100.00
66381;BME280;53177;52.648;1.214;2022-09-09T06:21:03;99647.28;;;13.82;100.00
66381;BME280;53177;52.648;1.214;2022-09-09T06:23:30;99651.91;;;13.96;100.00
66381;BME280;53177;52.648;1.214;2022-09-09T06:26:12;99644.38;;;13.93;100.00
66381;BME280;53177;52.648;1.214;2022-09-09T06:28:38;99646.69;;;13.85;100.00
66381;BME280;53177;52.648;1.214;2022-09-09T06:31:06;99645.38;;;13.83;100.00
66381;BME280;53177;52.648;1.214;2022-09-09T06:33:34;99639.47;;;13.81;100.00
66381;BME280;53177;52.648;1.214;2022-09-09T06:36:00;99650.69;;;13.88;100.00
66381;BME280;53177;52.648;1.214;2022-09-09T06:38:26;99640.72;;;13.88;100.00
66381;BME280;53177;52.648;1.214;2022-09-09T06:40:57;99642.22;;;13.95;100.00
66381;BME280;53177;52.648;1.214;2022-09-09T06:43:26;99649.72;;;13.98;100.00
66381;BME280;53177;52.648;1.214;2022-09-09T06:45:59;99654.53;;;14.01;100.00
66381;BME280;53177;52.648;1.214;2022-09-09T06:48:25;99651.72;;;14.06;100.00
66381;BME280;53177;52.648;1.214;2022-09-09T06:51:20;99651.06;;;14.14;100.00
66381;BME280;53177;52.648;1.214;2022-09-09T06:53:49;99653.53;;;14.10;100.00
66381;BME280;53177;52.648;1.214;2022-09-09T06:56:27;99665.22;;;14.06;100.00
66381;BME280;53177;52.648;1.214;2022-09-09T06:58:55;99667.34;;;14.09;100.00
66381;BME280;53177;52.648;1.214;2022-09-09T07:01:23;99663.53;;;14.10;100.00
66381;BME280;53177;52.648;1.214;2022-09-09T07:03:51;99674.06;;;14.11;100.00
66381;BME280;53177;52.648;1.214;2022-09-09T07:06:19;99676.47;;;14.13;100.00
66381;BME280;53177;52.648;1.214;2022-09-09T07:09:01;99678.06;;;14.14;100.00
66381;BME280;53177;52.648;1.214;2022-09-09T07:11:30;99664.41;;;14.24;100.00
66381;BME280;53177;52.648;1.214;2022-09-09T07:13:57;99674.50;;;14.32;100.00
66381;BME280;53177;52.648;1.214;2022-09-09T07:16:23;99672.91;;;14.31;100.00
66381;BME280;53177;52.648;1.214;2022-09-09T07:18:50;99676.13;;;14.33;100.00
66381;BME280;53177;52.648;1.214;2022-09-09T07:21:17;99672.53;;;14.38;100.00
66381;BME280;53177;52.648;1.214;2022-09-09T07:23:43;99672.44;;;14.43;100.00
66381;BME280;53177;52.648;1.214;2022-09-09T07:26:10;99670.84;;;14.42;100.00
66381;BME280;53177;52.648;1.214;2022-09-09T07:28:37;99675.94;;;14.44;100.00
66381;BME280;53177;52.648;1.214;2022-09-09T07:31:02;99685.94;;;14.43;100.00
66381;BME280;53177;52.648;1.214;2022-09-09T07:33:28;99688.84;;;14.47;100.00
66381;BME280;53177;52.648;1.214;2022-09-09T07:36:05;99683.06;;;14.53;100.00
66381;BME280;53177;52.648;1.214;2022-09-09T07:38:33;99683.78;;;14.59;100.00
66381;BME280;53177;52.648;1.214;2022-09-09T07:41:07;99689.06;;;14.64;100.00
66381;BME280;53177;52.648;1.214;2022-09-09T07:43:37;99681.88;;;14.73;100.00
66381;BME280;53177;52.648;1.214;2022-09-09T07:46:02;99688.28;;;14.77;100.00
66381;BME280;53177;52.648;1.214;2022-09-09T07:48:28;99693.41;;;14.93;100.00
66381;BME280;53177;52.648;1.214;2022-09-09T07:51:03;99700.94;;;14.96;100.00
66381;BME280;53177;52.648;1.214;2022-09-09T07:53:29;99693.88;;;14.95;100.00
66381;BME280;53177;52.648;1.214;2022-09-09T07:56:02;99703.13;;;14.94;100.00
66381;BME280;53177;52.648;1.214;2022-09-09T07:58:28;99704.22;;;15.06;100.00
66381;BME280;53177;52.648;1.214;2022-09-09T08:00:53;99698.50;;;15.08;100.00
66381;BME280;53177;52.648;1.214;2022-09-09T08:03:19;99702.69;;;15.28;100.00
66381;BME280;53177;52.648;1.214;2022-09-09T08:05:47;99700.28;;;15.26;100.00
66381;BME280;53177;52.648;1.214;2022-09-09T08:08:16;99705.47;;;15.36;100.00
66381;BME280;53177;52.648;1.214;2022-09-09T08:10:42;99708.84;;;15.56;100.00
66381;BME280;53177;52.648;1.214;2022-09-09T08:13:08;99716.69;;;15.43;100.00
66381;BME280;53177;52.648;1.214;2022-09-09T08:15:34;99720.25;;;15.53;100.00
66381;BME280;53177;52.648;1.214;2022-09-09T08:17:59;99726.19;;;15.55;100.00
66381;BME280;53177;52.648;1.214;2022-09-09T08:20:25;99734.69;;;15.62;100.00
66381;BME280;53177;52.648;1.214;2022-09-09T08:22:50;99739.22;;;15.53;100.00
66381;BME280;53177;52.648;1.214;2022-09-09T08:25:15;99744.81;;;15.56;100.00
66381;BME280;53177;52.648;1.214;2022-09-09T08:27:41;99745.50;;;15.62;100.00
66381;BME280;53177;52.648;1.214;2022-09-09T08:30:07;99755.75;;;15.65;100.00
66381;BME280;53177;52.648;1.214;2022-09-09T08:32:32;99759.47;;;15.69;100.00
66381;BME280;53177;52.648;1.214;2022-09-09T08:34:58;99754.31;;;15.81;100.00
66381;BME280;53177;52.648;1.214;2022-09-09T08:37:23;99761.22;;;15.87;100.00
66381;BME280;53177;52.648;1.214;2022-09-09T08:39:49;99761.97;;;16.02;100.00
66381;BME280;53177;52.648;1.214;2022-09-09T08:47:58;99762.69;;;16.38;100.00
66381;BME280;53177;52.648;1.214;2022-09-09T08:50:29;99768.13;;;16.38;100.00
66381;BME280;53177;52.648;1.214;2022-09-09T08:53:22;99761.75;;;16.34;100.00
66381;BME280;53177;52.648;1.214;2022-09-09T08:55:52;99762.75;;;16.25;100.00
66381;BME280;53177;52.648;1.214;2022-09-09T09:06:42;99768.50;;;16.46;100.00
66381;BME280;53177;52.648;1.214;2022-09-09T09:11:53;99772.19;;;16.50;100.00
66381;BME280;53177;52.648;1.214;2022-09-09T09:14:25;99771.31;;;16.63;100.00
66381;BME280;53177;52.648;1.214;2022-09-09T09:16:56;99777.66;;;16.58;100.00
66381;BME280;53177;52.648;1.214;2022-09-09T09:19:25;99776.13;;;16.66;100.00
66381;BME280;53177;52.648;1.214;2022-09-09T09:27:13;99782.50;;;16.92;100.00
66381;BME280;53177;52.648;1.214;2022-09-09T09:29:39;99779.56;;;17.20;100.00
66381;BME280;53177;52.648;1.214;2022-09-09T09:32:07;99791.66;;;17.14;100.00
66381;BME280;53177;52.648;1.214;2022-09-09T09:34:37;99793.47;;;17.27;100.00
66381;BME280;53177;52.648;1.214;2022-09-09T09:37:13;99797.72;;;17.51;100.00
66381;BME280;53177;52.648;1.214;2022-09-09T09:39:42;99799.19;;;17.17;100.00
66381;BME280;53177;52.648;1.214;2022-09-09T09:42:11;99801.34;;;16.98;100.00
66381;BME280;53177;52.648;1.214;2022-09-09T09:44:39;99812.97;;;16.89;100.00
66381;BME280;53177;52.648;1.214;2022-09-09T09:47:08;99813.22;;;16.57;100.00
66381;BME280;53177;52.648;1.214;2022-09-09T09:49:33;99806.81;;;16.53;100.00
66381;BME280;53177;52.648;1.214;2022-09-09T09:52:14;99807.69;;;16.62;100.00
66381;BME280;53177;52.648;1.214;2022-09-09T09:54:43;99817.22;;;16.59;100.00
66381;BME280;53177;52.648;1.214;2022-09-09T09:57:13;99813.97;;;16.49;100.00
66381;BME280;53177;52.648;1.214;2022-09-09T09:59:40;99819.13;;;16.36;100.00
66381;BME280;53177;52.648;1.214;2022-09-09T10:02:17;99817.47;;;16.27;100.00
66381;BME280;53177;52.648;1.214;2022-09-09T10:04:43;99815.38;;;16.24;100.00
66381;BME280;53177;52.648;1.214;2022-09-09T10:07:28;99819.44;;;16.12;100.00
66381;BME280;53177;52.648;1.214;2022-09-09T10:09:56;99821.31;;;16.26;100.00
66381;BME280;53177;52.648;1.214;2022-09-09T10:22:52;99831.56;;;16.60;100.00
66381;BME280;53177;52.648;1.214;2022-09-09T10:30:49;99834.25;;;16.74;100.00
66381;BME280;53177;52.648;1.214;2022-09-09T10:33:31;99832.13;;;17.24;100.00
66381;BME280;53177;52.648;1.214;2022-09-09T10:38:45;99838.63;;;17.23;100.00
66381;BME280;53177;52.648;1.214;2022-09-09T10:43:57;99846.38;;;17.78;100.00
66381;BME280;53177;52.648;1.214;2022-09-09T10:46:52;99841.59;;;18.10;100.00
66381;BME280;53177;52.648;1.214;2022-09-09T10:57:35;99848.31;;;17.86;100.00
66381;BME280;53177;52.648;1.214;2022-09-09T11:00:17;99852.44;;;17.92;100.00
66381;BME280;53177;52.648;1.214;2022-09-09T11:02:47;99859.19;;;18.04;100.00
66381;BME280;53177;52.648;1.214;2022-09-09T11:05:19;99850.22;;;17.94;100.00
66381;BME280;53177;52.648;1.214;2022-09-09T11:07:58;99851.50;;;18.06;100.00
66381;BME280;53177;52.648;1.214;2022-09-09T11:10:39;99850.41;;;18.15;100.00
66381;BME280;53177;52.648;1.214;2022-09-09T11:13:11;99858.56;;;18.24;100.00
66381;BME280;53177;52.648;1.214;2022-09-09T11:15:50;99852.78;;;18.00;100.00
66381;BME280;53177;52.648;1.214;2022-09-09T11:18:21;99859.50;;;18.02;100.00
66381;BME280;53177;52.648;1.214;2022-09-09T11:20:51;99864.63;;;18.21;100.00
66381;BME280;53177;52.648;1.214;2022-09-09T11:23:53;99853.75;;;18.38;100.00
66381;BME280;53177;52.648;1.214;2022-09-09T11:26:29;99857.59;;;18.55;100.00
66381;BME280;53177;52.648;1.214;2022-09-09T11:31:56;99862.69;;;18.30;100.00
66381;BME280;53177;52.648;1.214;2022-09-09T11:34:43;99866.53;;;18.12;100.00
66381;BME280;53177;52.648;1.214;2022-09-09T11:40:25;99869.25;;;18.21;100.00
66381;BME280;53177;52.648;1.214;2022-09-09T11:43:17;99867.81;;;18.14;100.00
66381;BME280;53177;52.648;1.214;2022-09-09T11:45:51;99873.72;;;18.16;100.00
66381;BME280;53177;52.648;1.214;2022-09-09T11:48:43;99876.31;;;18.04;100.00
66381;BME280;53177;52.648;1.214;2022-09-09T11:51:30;99880.13;;;18.21;100.00
66381;BME280;53177;52.648;1.214;2022-09-09T11:54:01;99879.34;;;18.37;100.00
66381;BME280;53177;52.648;1.214;2022-09-09T11:59:20;99888.16;;;18.78;100.00
66381;BME280;53177;52.648;1.214;2022-09-09T12:01:55;99889.72;;;18.96;97.80
66381;BME280;53177;52.648;1.214;2022-09-09T12:07:02;99892.44;;;19.81;93.59
66381;BME280;53177;52.648;1.214;2022-09-09T12:09:47;99880.78;;;20.02;94.72
66381;BME280;53177;52.648;1.214;2022-09-09T12:17:23;99904.63;;;18.47;100.00
66381;BME280;53177;52.648;1.214;2022-09-09T12:32:01;99929.59;;;17.12;100.00
66381;BME280;53177;52.648;1.214;2022-09-09T12:34:35;99928.78;;;17.11;100.00
66381;BME280;53177;52.648;1.214;2022-09-09T12:40:04;99922.88;;;17.09;100.00
66381;BME280;53177;52.648;1.214;2022-09-09T12:42:31;99929.22;;;17.05;100.00
66381;BME280;53177;52.648;1.214;2022-09-09T12:45:02;99920.03;;;17.14;100.00
66381;BME280;53177;52.648;1.214;2022-09-09T12:50:26;99926.78;;;17.26;100.00
66381;BME280;53177;52.648;1.214;2022-09-09T12:53:06;99930.88;;;17.37;100.00
66381;BME280;53177;52.648;1.214;2022-09-09T12:55:36;99935.00;;;17.34;100.00
66381;BME280;53177;52.648;1.214;2022-09-09T12:58:03;99938.44;;;17.26;100.00
66381;BME280;53177;52.648;1.214;2022-09-09T13:00:32;99933.25;;;17.07;100.00
66381;BME280;53177;52.648;1.214;2022-09-09T13:03:00;99928.88;;;16.98;100.00
66381;BME280;53177;52.648;1.214;2022-09-09T13:05:35;99935.03;;;17.12;100.00
66381;BME280;53177;52.648;1.214;2022-09-09T13:08:12;99940.13;;;17.13;100.00
66381;BME280;53177;52.648;1.214;2022-09-09T13:10:54;99951.31;;;16.89;100.00
66381;BME280;53177;52.648;1.214;2022-09-09T13:13:31;99953.66;;;16.68;100.00
66381;BME280;53177;52.648;1.214;2022-09-09T13:16:00;99945.09;;;16.89;100.00
66381;BME280;53177;52.648;1.214;2022-09-09T13:18:29;99953.41;;;16.92;100.00
66381;BME280;53177;52.648;1.214;2022-09-09T13:20:55;99959.94;;;16.91;100.00
66381;BME280;53177;52.648;1.214;2022-09-09T13:23:26;99964.00;;;16.80;100.00
66381;BME280;53177;52.648;1.214;2022-09-09T13:25:57;99961.19;;;16.85;100.00
66381;BME280;53177;52.648;1.214;2022-09-09T13:28:26;99972.47;;;16.65;100.00
66381;BME280;53177;52.648;1.214;2022-09-09T13:31:02;99967.41;;;16.36;100.00
66381;BME280;53177;52.648;1.214;2022-09-09T13:33:38;99963.50;;;16.28;100.00
66381;BME280;53177;52.648;1.214;2022-09-09T13:36:09;99975.97;;;16.43;100.00
66381;BME280;53177;52.648;1.214;2022-09-09T13:41:20;99971.16;;;16.26;100.00
66381;BME280;53177;52.648;1.214;2022-09-09T13:43:47;99975.75;;;16.39;100.00
66381;BME280;53177;52.648;1.214;2022-09-09T13:46:35;99974.03;;;16.43;100.00
66381;BME280;53177;52.648;1.214;2022-09-09T13:49:21;99982.19;;;16.43;100.00
66381;BME280;53177;52.648;1.214;2022-09-09T13:51:51;99983.38;;;16.37;100.00
66381;BME280;53177;52.648;1.214;2022-09-09T13:54:27;99988.00;;;16.23;100.00
66381;BME280;53177;52.648;1.214;2022-09-09T13:56:53;99985.81;;;16.25;100.00
66381;BME280;53177;52.648;1.214;2022-09-09T13:59:20;99987.22;;;16.23;100.00
66381;BME280;53177;52.648;1.214;2022-09-09T14:01:46;99988.00;;;16.23;100.00
66381;BME280;53177;52.648;1.214;2022-09-09T14:04:12;99984.50;;;16.23;100.00
66381;BME280;53177;52.648;1.214;2022-09-09T14:06:38;99992.06;;;16.12;100.00
66381;BME280;53177;52.648;1.214;2022-09-09T14:09:05;99996.06;;;16.01;100.00
66381;BME280;53177;52.648;1.214;2022-09-09T14:11:31;100000.16;;;15.98;100.00
66381;BME280;53177;52.648;1.214;2022-09-09T14:13:56;99991.94;;;16.17;100.00
66381;BME280;53177;52.648;1.214;2022-09-09T14:16:22;99986.44;;;16.08;100.00
66381;BME280;53177;52.648;1.214;2022-09-09T14:18:47;99988.81;;;16.10;100.00
66381;BME280;53177;52.648;1.214;2022-09-09T14:21:13;100000.38;;;16.02;100.00
66381;BME280;53177;52.648;1.214;2022-09-09T14:23:39;99996.97;;;16.10;100.00
66381;BME280;53177;52.648;1.214;2022-09-09T14:26:05;100007.78;;;16.10;100.00
66381;BME280;53177;52.648;1.214;2022-09-09T14:28:31;100003.78;;;16.07;100.00
66381;BME280;53177;52.648;1.214;2022-09-09T14:31:02;100005.88;;;15.97;100.00
66381;BME280;53177;52.648;1.214;2022-09-09T14:33:29;100014.72;;;15.88;100.00
66381;BME280;53177;52.648;1.214;2022-09-09T14:36:02;100012.91;;;15.84;100.00
66381;BME280;53177;52.648;1.214;2022-09-09T14:38:35;100001.88;;;15.94;100.00
66381;BME280;53177;52.648;1.214;2022-09-09T14:41:05;100009.91;;;15.85;100.00
66381;BME280;53177;52.648;1.214;2022-09-09T14:43:30;100018.72;;;15.77;100.00
66381;BME280;53177;52.648;1.214;2022-09-09T14:46:07;100011.72;;;15.76;100.00
66381;BME280;53177;52.648;1.214;2022-09-09T14:48:33;100010.88;;;15.76;100.00
66381;BME280;53177;52.648;1.214;2022-09-09T14:51:09;100017.50;;;15.83;100.00
66381;BME280;53177;52.648;1.214;2022-09-09T14:53:35;100018.16;;;15.94;100.00
66381;BME280;53177;52.648;1.214;2022-09-09T14:56:21;100015.34;;;15.99;100.00
66381;BME280;53177;52.648;1.214;2022-09-09T14:58:48;100021.75;;;15.89;100.00
66381;BME280;53177;52.648;1.214;2022-09-09T15:01:16;100009.13;;;15.99;100.00
66381;BME280;53177;52.648;1.214;2022-09-09T15:03:42;100006.88;;;15.87;100.00
66381;BME280;53177;52.648;1.214;2022-09-09T15:06:11;100009.00;;;16.04;100.00
66381;BME280;53177;52.648;1.214;2022-09-09T15:08:38;100010.72;;;16.00;100.00
66381;BME280;53177;52.648;1.214;2022-09-09T15:11:05;100002.47;;;16.05;100.00
66381;BME280;53177;52.648;1.214;2022-09-09T15:13:33;100003.59;;;16.17;100.00
66381;BME280;53177;52.648;1.214;2022-09-09T15:16:09;99995.44;;;16.31;100.00
66381;BME280;53177;52.648;1.214;2022-09-09T15:18:34;100000.63;;;16.41;100.00
66381;BME280;53177;52.648;1.214;2022-09-09T15:21:02;100000.25;;;16.48;100.00